KBHM/BHM METAR and TAF weather

Enter ICAO airport designator
Station Type Date Time Source
KBHM METAR 2020/03/29 10:53 UTC NOAA

KBHM 291053Z 25007KT 10SM FEW050 BKN075 19/16 A3002 RMK AO2 RAE0955 SLP157 P0000 T01890156


Station Type Date Time Source
KBHM Decoded METAR 2020/03/29 10:53 UTC NOAA

BIRMINGHAM INT'L AIRPORT, AL, United States (KBHM) 33-34N 086-45W 197M
Mar 29, 2020 - 06:53 AM EDT / 2020.03.29 1053 UTC
Wind: from the WSW (250 degrees) at 8 MPH (7 KT):0
Visibility: 10 mile(s):0
Sky conditions: mostly cloudy
Precipitation last hour: A trace
Temperature: 66.0 F (18.9 C)
Dew Point: 60.1 F (15.6 C)
Relative Humidity: 81%
Pressure (altimeter): 30.02 in. Hg (1016 hPa)
ob: KBHM 291053Z 25007KT 10SM FEW050 BKN075 19/16 A3002 RMK AO2 RAE0955 SLP157 P0000 T01890156
cycle: 11

Station Type Date Time Source
KBHM TAF 2020/03/29 12:22 UTC NOAA

TAF KBHM 291120Z 2912/3012 27009KT P6SM BKN045
FM291900 28009KT P6SM SCT250
FM300200 VRB04KT P6SM OVC250

Example: see airport list